sensor_id;sensor_type;location;lat;lon;timestamp;P1;durP1;ratioP1;P2;durP2;ratioP2
15708;SDS011;7954;51.914;8.420;2022-10-17T00:00:21;1.70;;;1.60;;
15708;SDS011;7954;51.914;8.420;2022-10-17T00:02:49;1.70;;;1.60;;
15708;SDS011;7954;51.914;8.420;2022-10-17T00:05:18;1.60;;;1.50;;
15708;SDS011;7954;51.914;8.420;2022-10-17T00:07:46;1.73;;;1.63;;
15708;SDS011;7954;51.914;8.420;2022-10-17T00:10:15;1.90;;;1.80;;
15708;SDS011;7954;51.914;8.420;2022-10-17T00:12:44;2.70;;;1.60;;
15708;SDS011;7954;51.914;8.420;2022-10-17T00:15:14;2.03;;;1.90;;
15708;SDS011;7954;51.914;8.420;2022-10-17T00:17:43;2.00;;;1.77;;
15708;SDS011;7954;51.914;8.420;2022-10-17T00:20:13;1.70;;;1.60;;
15708;SDS011;7954;51.914;8.420;2022-10-17T00:22:43;1.83;;;1.73;;
15708;SDS011;7954;51.914;8.420;2022-10-17T00:25:11;3.53;;;1.83;;
15708;SDS011;7954;51.914;8.420;2022-10-17T00:27:40;1.77;;;1.67;;
15708;SDS011;7954;51.914;8.420;2022-10-17T00:30:09;1.87;;;1.77;;
15708;SDS011;7954;51.914;8.420;2022-10-17T00:32:38;2.23;;;2.00;;
15708;SDS011;7954;51.914;8.420;2022-10-17T00:35:07;2.13;;;2.00;;
15708;SDS011;7954;51.914;8.420;2022-10-17T00:37:35;2.03;;;1.93;;
15708;SDS011;7954;51.914;8.420;2022-10-17T00:40:06;2.27;;;2.13;;
15708;SDS011;7954;51.914;8.420;2022-10-17T00:42:35;2.10;;;2.00;;
15708;SDS011;7954;51.914;8.420;2022-10-17T00:47:43;2.37;;;2.17;;
15708;SDS011;7954;51.914;8.420;2022-10-17T00:50:14;2.50;;;2.30;;
15708;SDS011;7954;51.914;8.420;2022-10-17T00:52:43;2.10;;;2.00;;
15708;SDS011;7954;51.914;8.420;2022-10-17T00:55:15;1.97;;;1.87;;
15708;SDS011;7954;51.914;8.420;2022-10-17T00:57:46;2.77;;;2.30;;
15708;SDS011;7954;51.914;8.420;2022-10-17T01:00:15;2.87;;;2.67;;
15708;SDS011;7954;51.914;8.420;2022-10-17T01:02:44;2.17;;;2.07;;
15708;SDS011;7954;51.914;8.420;2022-10-17T01:05:12;2.40;;;2.20;;
15708;SDS011;7954;51.914;8.420;2022-10-17T01:07:41;2.10;;;2.00;;
15708;SDS011;7954;51.914;8.420;2022-10-17T01:10:10;2.50;;;2.30;;
15708;SDS011;7954;51.914;8.420;2022-10-17T01:12:47;2.43;;;2.23;;
15708;SDS011;7954;51.914;8.420;2022-10-17T01:15:25;3.30;;;3.00;;
15708;SDS011;7954;51.914;8.420;2022-10-17T01:18:08;2.77;;;2.57;;
15708;SDS011;7954;51.914;8.420;2022-10-17T01:20:49;2.83;;;2.63;;
15708;SDS011;7954;51.914;8.420;2022-10-17T01:23:42;2.40;;;2.30;;
15708;SDS011;7954;51.914;8.420;2022-10-17T01:26:24;2.80;;;2.60;;
15708;SDS011;7954;51.914;8.420;2022-10-17T01:29:13;2.90;;;2.70;;
15708;SDS011;7954;51.914;8.420;2022-10-17T01:31:58;2.73;;;2.53;;
15708;SDS011;7954;51.914;8.420;2022-10-17T01:34:31;2.40;;;2.30;;
15708;SDS011;7954;51.914;8.420;2022-10-17T01:37:03;2.80;;;2.60;;
15708;SDS011;7954;51.914;8.420;2022-10-17T01:39:37;3.03;;;2.60;;
15708;SDS011;7954;51.914;8.420;2022-10-17T01:42:14;2.60;;;2.40;;
15708;SDS011;7954;51.914;8.420;2022-10-17T01:44:46;2.77;;;2.57;;
15708;SDS011;7954;51.914;8.420;2022-10-17T01:47:23;2.60;;;2.40;;
15708;SDS011;7954;51.914;8.420;2022-10-17T01:49:55;2.60;;;2.40;;
15708;SDS011;7954;51.914;8.420;2022-10-17T01:52:27;2.80;;;2.57;;
15708;SDS011;7954;51.914;8.420;2022-10-17T01:55:02;2.80;;;2.60;;
15708;SDS011;7954;51.914;8.420;2022-10-17T01:57:34;2.50;;;2.40;;
15708;SDS011;7954;51.914;8.420;2022-10-17T02:00:07;3.07;;;2.87;;
15708;SDS011;7954;51.914;8.420;2022-10-17T02:02:40;2.80;;;2.57;;
15708;SDS011;7954;51.914;8.420;2022-10-17T02:05:11;2.60;;;2.47;;
15708;SDS011;7954;51.914;8.420;2022-10-17T02:07:40;2.77;;;2.57;;
15708;SDS011;7954;51.914;8.420;2022-10-17T02:10:09;3.00;;;2.73;;
15708;SDS011;7954;51.914;8.420;2022-10-17T02:12:45;2.60;;;2.40;;
15708;SDS011;7954;51.914;8.420;2022-10-17T02:15:23;3.27;;;2.60;;
15708;SDS011;7954;51.914;8.420;2022-10-17T02:18:17;2.60;;;2.40;;
15708;SDS011;7954;51.914;8.420;2022-10-17T02:21:02;2.97;;;2.77;;
15708;SDS011;7954;51.914;8.420;2022-10-17T02:23:36;2.60;;;2.40;;
15708;SDS011;7954;51.914;8.420;2022-10-17T02:26:15;2.60;;;2.40;;
15708;SDS011;7954;51.914;8.420;2022-10-17T02:28:50;3.00;;;2.80;;
15708;SDS011;7954;51.914;8.420;2022-10-17T02:31:25;3.03;;;2.43;;
15708;SDS011;7954;51.914;8.420;2022-10-17T02:34:00;2.80;;;2.60;;
15708;SDS011;7954;51.914;8.420;2022-10-17T02:36:31;3.00;;;2.80;;
15708;SDS011;7954;51.914;8.420;2022-10-17T02:39:03;2.70;;;2.50;;
15708;SDS011;7954;51.914;8.420;2022-10-17T02:41:33;2.93;;;2.73;;
15708;SDS011;7954;51.914;8.420;2022-10-17T02:44:02;2.87;;;2.67;;
15708;SDS011;7954;51.914;8.420;2022-10-17T02:46:33;2.70;;;2.50;;
15708;SDS011;7954;51.914;8.420;2022-10-17T02:49:07;2.80;;;2.60;;
15708;SDS011;7954;51.914;8.420;2022-10-17T02:51:43;3.37;;;3.07;;
15708;SDS011;7954;51.914;8.420;2022-10-17T02:54:17;2.93;;;2.60;;
15708;SDS011;7954;51.914;8.420;2022-10-17T02:56:50;2.90;;;2.70;;
15708;SDS011;7954;51.914;8.420;2022-10-17T02:59:22;2.83;;;2.63;;
15708;SDS011;7954;51.914;8.420;2022-10-17T03:01:52;3.10;;;2.90;;
15708;SDS011;7954;51.914;8.420;2022-10-17T03:04:22;3.17;;;2.90;;
15708;SDS011;7954;51.914;8.420;2022-10-17T03:06:50;5.60;;;3.13;;
15708;SDS011;7954;51.914;8.420;2022-10-17T03:09:19;3.17;;;2.97;;
15708;SDS011;7954;51.914;8.420;2022-10-17T03:11:47;2.93;;;2.73;;
15708;SDS011;7954;51.914;8.420;2022-10-17T03:14:15;3.00;;;2.80;;
15708;SDS011;7954;51.914;8.420;2022-10-17T03:16:43;3.30;;;3.10;;
15708;SDS011;7954;51.914;8.420;2022-10-17T03:19:13;3.20;;;3.00;;
15708;SDS011;7954;51.914;8.420;2022-10-17T03:21:42;3.37;;;3.07;;
15708;SDS011;7954;51.914;8.420;2022-10-17T03:24:11;3.90;;;2.87;;
15708;SDS011;7954;51.914;8.420;2022-10-17T03:26:39;3.03;;;2.73;;
15708;SDS011;7954;51.914;8.420;2022-10-17T03:29:07;2.80;;;2.60;;
15708;SDS011;7954;51.914;8.420;2022-10-17T03:31:35;3.30;;;3.10;;
15708;SDS011;7954;51.914;8.420;2022-10-17T03:34:03;3.40;;;3.13;;
15708;SDS011;7954;51.914;8.420;2022-10-17T03:36:32;3.10;;;2.80;;
15708;SDS011;7954;51.914;8.420;2022-10-17T03:39:01;3.30;;;3.10;;
15708;SDS011;7954;51.914;8.420;2022-10-17T03:41:29;3.30;;;3.00;;
15708;SDS011;7954;51.914;8.420;2022-10-17T03:43:57;4.03;;;3.23;;
15708;SDS011;7954;51.914;8.420;2022-10-17T03:46:25;2.90;;;2.70;;
15708;SDS011;7954;51.914;8.420;2022-10-17T03:48:53;3.30;;;3.03;;
15708;SDS011;7954;51.914;8.420;2022-10-17T03:51:21;3.50;;;2.93;;
15708;SDS011;7954;51.914;8.420;2022-10-17T03:53:49;3.50;;;3.00;;
15708;SDS011;7954;51.914;8.420;2022-10-17T03:56:19;2.97;;;2.77;;
15708;SDS011;7954;51.914;8.420;2022-10-17T03:58:50;2.90;;;2.70;;
15708;SDS011;7954;51.914;8.420;2022-10-17T04:01:18;3.87;;;3.40;;
15708;SDS011;7954;51.914;8.420;2022-10-17T04:03:47;3.50;;;3.20;;
15708;SDS011;7954;51.914;8.420;2022-10-17T04:06:16;3.00;;;2.80;;
15708;SDS011;7954;51.914;8.420;2022-10-17T04:08:44;6.20;;;3.17;;
15708;SDS011;7954;51.914;8.420;2022-10-17T04:11:13;2.80;;;2.60;;
15708;SDS011;7954;51.914;8.420;2022-10-17T04:13:44;4.30;;;3.60;;
15708;SDS011;7954;51.914;8.420;2022-10-17T04:16:13;3.30;;;3.10;;
15708;SDS011;7954;51.914;8.420;2022-10-17T04:18:42;3.77;;;3.47;;
15708;SDS011;7954;51.914;8.420;2022-10-17T04:21:11;4.00;;;3.60;;
15708;SDS011;7954;51.914;8.420;2022-10-17T04:23:40;3.33;;;3.07;;
15708;SDS011;7954;51.914;8.420;2022-10-17T04:26:08;3.50;;;3.23;;
15708;SDS011;7954;51.914;8.420;2022-10-17T04:28:36;3.57;;;3.30;;
15708;SDS011;7954;51.914;8.420;2022-10-17T04:31:06;4.20;;;3.17;;
15708;SDS011;7954;51.914;8.420;2022-10-17T04:33:36;3.67;;;3.37;;
15708;SDS011;7954;51.914;8.420;2022-10-17T04:36:05;3.13;;;2.93;;
15708;SDS011;7954;51.914;8.420;2022-10-17T04:38:34;3.70;;;3.40;;
15708;SDS011;7954;51.914;8.420;2022-10-17T04:41:03;3.43;;;3.17;;
15708;SDS011;7954;51.914;8.420;2022-10-17T04:43:35;3.10;;;2.90;;
15708;SDS011;7954;51.914;8.420;2022-10-17T04:46:06;3.50;;;3.30;;
15708;SDS011;7954;51.914;8.420;2022-10-17T04:48:36;3.43;;;3.23;;
15708;SDS011;7954;51.914;8.420;2022-10-17T04:51:05;3.70;;;3.40;;
15708;SDS011;7954;51.914;8.420;2022-10-17T04:53:35;3.43;;;3.13;;
15708;SDS011;7954;51.914;8.420;2022-10-17T04:56:09;3.50;;;3.20;;
15708;SDS011;7954;51.914;8.420;2022-10-17T04:58:38;3.70;;;3.40;;
15708;SDS011;7954;51.914;8.420;2022-10-17T05:01:09;3.40;;;3.20;;
15708;SDS011;7954;51.914;8.420;2022-10-17T05:03:39;3.53;;;3.23;;
15708;SDS011;7954;51.914;8.420;2022-10-17T05:06:10;3.43;;;3.07;;
15708;SDS011;7954;51.914;8.420;2022-10-17T05:08:39;3.30;;;3.10;;
15708;SDS011;7954;51.914;8.420;2022-10-17T05:11:14;3.80;;;3.47;;
15708;SDS011;7954;51.914;8.420;2022-10-17T05:13:43;3.87;;;3.23;;
15708;SDS011;7954;51.914;8.420;2022-10-17T05:16:13;3.90;;;3.60;;
15708;SDS011;7954;51.914;8.420;2022-10-17T05:18:41;5.23;;;3.50;;
15708;SDS011;7954;51.914;8.420;2022-10-17T05:21:11;3.73;;;3.43;;
15708;SDS011;7954;51.914;8.420;2022-10-17T05:23:39;3.90;;;3.27;;
15708;SDS011;7954;51.914;8.420;2022-10-17T05:26:06;3.33;;;3.03;;
15708;SDS011;7954;51.914;8.420;2022-10-17T05:28:34;2.93;;;2.73;;
15708;SDS011;7954;51.914;8.420;2022-10-17T05:31:02;3.33;;;3.03;;
15708;SDS011;7954;51.914;8.420;2022-10-17T05:33:32;3.43;;;3.13;;
15708;SDS011;7954;51.914;8.420;2022-10-17T05:36:00;3.60;;;3.30;;
15708;SDS011;7954;51.914;8.420;2022-10-17T05:38:29;3.20;;;3.00;;
15708;SDS011;7954;51.914;8.420;2022-10-17T05:40:57;3.57;;;3.27;;
15708;SDS011;7954;51.914;8.420;2022-10-17T05:43:25;3.00;;;2.80;;
15708;SDS011;7954;51.914;8.420;2022-10-17T05:45:53;3.40;;;3.10;;
15708;SDS011;7954;51.914;8.420;2022-10-17T05:48:22;3.40;;;3.10;;
15708;SDS011;7954;51.914;8.420;2022-10-17T05:50:57;3.60;;;3.30;;
15708;SDS011;7954;51.914;8.420;2022-10-17T05:53:28;3.37;;;3.07;;
15708;SDS011;7954;51.914;8.420;2022-10-17T05:55:57;5.07;;;3.00;;
15708;SDS011;7954;51.914;8.420;2022-10-17T05:58:27;3.10;;;2.80;;
15708;SDS011;7954;51.914;8.420;2022-10-17T06:01:15;3.33;;;3.00;;
15708;SDS011;7954;51.914;8.420;2022-10-17T06:03:44;3.73;;;3.43;;
15708;SDS011;7954;51.914;8.420;2022-10-17T06:06:13;4.13;;;3.70;;
15708;SDS011;7954;51.914;8.420;2022-10-17T06:08:42;4.57;;;3.50;;
15708;SDS011;7954;51.914;8.420;2022-10-17T06:11:12;3.47;;;3.17;;
15708;SDS011;7954;51.914;8.420;2022-10-17T06:13:40;3.80;;;3.50;;
15708;SDS011;7954;51.914;8.420;2022-10-17T06:16:09;3.70;;;3.33;;
15708;SDS011;7954;51.914;8.420;2022-10-17T06:18:37;3.53;;;3.10;;
15708;SDS011;7954;51.914;8.420;2022-10-17T06:21:07;3.43;;;3.10;;
15708;SDS011;7954;51.914;8.420;2022-10-17T06:23:38;3.27;;;3.07;;
15708;SDS011;7954;51.914;8.420;2022-10-17T06:26:06;3.50;;;3.23;;
15708;SDS011;7954;51.914;8.420;2022-10-17T06:28:35;3.23;;;3.03;;
15708;SDS011;7954;51.914;8.420;2022-10-17T06:31:06;3.20;;;3.00;;
15708;SDS011;7954;51.914;8.420;2022-10-17T06:33:35;3.07;;;2.87;;
15708;SDS011;7954;51.914;8.420;2022-10-17T06:36:05;3.23;;;3.03;;
15708;SDS011;7954;51.914;8.420;2022-10-17T06:38:35;3.60;;;3.30;;
15708;SDS011;7954;51.914;8.420;2022-10-17T06:41:07;3.17;;;2.97;;
15708;SDS011;7954;51.914;8.420;2022-10-17T06:43:39;2.97;;;2.77;;
15708;SDS011;7954;51.914;8.420;2022-10-17T06:46:11;3.00;;;2.80;;
15708;SDS011;7954;51.914;8.420;2022-10-17T06:48:41;3.53;;;3.23;;
15708;SDS011;7954;51.914;8.420;2022-10-17T06:51:11;3.10;;;2.90;;
15708;SDS011;7954;51.914;8.420;2022-10-17T06:53:41;3.40;;;3.10;;
15708;SDS011;7954;51.914;8.420;2022-10-17T06:56:09;3.40;;;3.10;;
15708;SDS011;7954;51.914;8.420;2022-10-17T06:58:37;3.10;;;2.90;;
15708;SDS011;7954;51.914;8.420;2022-10-17T07:01:07;3.20;;;3.00;;
15708;SDS011;7954;51.914;8.420;2022-10-17T07:03:36;3.00;;;2.80;;
15708;SDS011;7954;51.914;8.420;2022-10-17T07:06:07;3.47;;;2.60;;
15708;SDS011;7954;51.914;8.420;2022-10-17T07:08:42;3.17;;;2.80;;
15708;SDS011;7954;51.914;8.420;2022-10-17T07:11:12;3.13;;;2.80;;
15708;SDS011;7954;51.914;8.420;2022-10-17T07:13:43;4.50;;;2.97;;
15708;SDS011;7954;51.914;8.420;2022-10-17T07:16:11;2.80;;;2.60;;
15708;SDS011;7954;51.914;8.420;2022-10-17T07:18:40;3.50;;;3.07;;
15708;SDS011;7954;51.914;8.420;2022-10-17T07:21:15;3.80;;;2.70;;
15708;SDS011;7954;51.914;8.420;2022-10-17T07:23:46;3.23;;;3.00;;
15708;SDS011;7954;51.914;8.420;2022-10-17T07:26:15;3.17;;;2.97;;
15708;SDS011;7954;51.914;8.420;2022-10-17T07:28:45;3.63;;;3.10;;
15708;SDS011;7954;51.914;8.420;2022-10-17T07:31:16;3.20;;;2.90;;
15708;SDS011;7954;51.914;8.420;2022-10-17T07:33:45;2.93;;;2.73;;
15708;SDS011;7954;51.914;8.420;2022-10-17T07:36:14;3.80;;;3.20;;
15708;SDS011;7954;51.914;8.420;2022-10-17T07:38:45;3.53;;;3.17;;
15708;SDS011;7954;51.914;8.420;2022-10-17T07:41:14;3.67;;;3.37;;
15708;SDS011;7954;51.914;8.420;2022-10-17T07:43:49;4.20;;;3.07;;
15708;SDS011;7954;51.914;8.420;2022-10-17T07:46:17;2.90;;;2.60;;
15708;SDS011;7954;51.914;8.420;2022-10-17T07:48:45;3.23;;;2.93;;
15708;SDS011;7954;51.914;8.420;2022-10-17T07:51:14;5.10;;;3.03;;
15708;SDS011;7954;51.914;8.420;2022-10-17T07:53:43;3.30;;;3.00;;
15708;SDS011;7954;51.914;8.420;2022-10-17T07:56:16;2.83;;;2.60;;
15708;SDS011;7954;51.914;8.420;2022-10-17T07:58:47;2.73;;;2.53;;
15708;SDS011;7954;51.914;8.420;2022-10-17T08:01:15;3.20;;;3.00;;
15708;SDS011;7954;51.914;8.420;2022-10-17T08:03:44;3.07;;;2.80;;
15708;SDS011;7954;51.914;8.420;2022-10-17T08:06:14;2.87;;;2.67;;
15708;SDS011;7954;51.914;8.420;2022-10-17T08:08:45;3.93;;;2.90;;
15708;SDS011;7954;51.914;8.420;2022-10-17T08:11:13;3.30;;;3.00;;
15708;SDS011;7954;51.914;8.420;2022-10-17T08:13:43;2.80;;;2.60;;
15708;SDS011;7954;51.914;8.420;2022-10-17T08:16:12;3.00;;;2.70;;
15708;SDS011;7954;51.914;8.420;2022-10-17T08:18:41;3.97;;;2.80;;
15708;SDS011;7954;51.914;8.420;2022-10-17T08:21:10;2.83;;;2.63;;
15708;SDS011;7954;51.914;8.420;2022-10-17T08:23:39;2.83;;;2.63;;
15708;SDS011;7954;51.914;8.420;2022-10-17T08:26:08;2.97;;;2.60;;
15708;SDS011;7954;51.914;8.420;2022-10-17T08:28:39;2.90;;;2.70;;
15708;SDS011;7954;51.914;8.420;2022-10-17T08:31:11;3.00;;;2.80;;
15708;SDS011;7954;51.914;8.420;2022-10-17T08:33:44;7.40;;;2.80;;
15708;SDS011;7954;51.914;8.420;2022-10-17T08:36:24;3.33;;;2.60;;
15708;SDS011;7954;51.914;8.420;2022-10-17T08:38:54;2.70;;;2.47;;
15708;SDS011;7954;51.914;8.420;2022-10-17T08:41:28;4.83;;;2.97;;
15708;SDS011;7954;51.914;8.420;2022-10-17T08:44:09;2.60;;;2.40;;
15708;SDS011;7954;51.914;8.420;2022-10-17T08:46:45;2.80;;;2.60;;
15708;SDS011;7954;51.914;8.420;2022-10-17T08:49:18;2.57;;;2.30;;
15708;SDS011;7954;51.914;8.420;2022-10-17T08:51:53;5.13;;;2.60;;
15708;SDS011;7954;51.914;8.420;2022-10-17T08:54:33;2.50;;;2.30;;
15708;SDS011;7954;51.914;8.420;2022-10-17T08:57:08;2.50;;;2.30;;
15708;SDS011;7954;51.914;8.420;2022-10-17T08:59:38;2.57;;;2.37;;
15708;SDS011;7954;51.914;8.420;2022-10-17T09:02:14;2.23;;;2.00;;
15708;SDS011;7954;51.914;8.420;2022-10-17T09:04:55;2.50;;;2.30;;
15708;SDS011;7954;51.914;8.420;2022-10-17T09:07:37;3.30;;;2.40;;
15708;SDS011;7954;51.914;8.420;2022-10-17T09:10:12;2.53;;;2.17;;
15708;SDS011;7954;51.914;8.420;2022-10-17T09:12:44;2.63;;;2.20;;
15708;SDS011;7954;51.914;8.420;2022-10-17T09:15:30;3.67;;;2.20;;
15708;SDS011;7954;51.914;8.420;2022-10-17T09:18:09;2.43;;;2.23;;
15708;SDS011;7954;51.914;8.420;2022-10-17T09:20:48;3.53;;;2.10;;
15708;SDS011;7954;51.914;8.420;2022-10-17T09:23:21;2.40;;;2.20;;
15708;SDS011;7954;51.914;8.420;2022-10-17T09:25:51;2.50;;;1.90;;
15708;SDS011;7954;51.914;8.420;2022-10-17T09:28:22;3.60;;;2.20;;
15708;SDS011;7954;51.914;8.420;2022-10-17T09:30:56;2.23;;;2.00;;
15708;SDS011;7954;51.914;8.420;2022-10-17T09:33:29;3.20;;;2.00;;
15708;SDS011;7954;51.914;8.420;2022-10-17T09:36:21;2.47;;;2.10;;
15708;SDS011;7954;51.914;8.420;2022-10-17T09:38:51;2.60;;;1.90;;
15708;SDS011;7954;51.914;8.420;2022-10-17T09:41:22;2.10;;;1.87;;
15708;SDS011;7954;51.914;8.420;2022-10-17T09:44:15;2.90;;;1.90;;
15708;SDS011;7954;51.914;8.420;2022-10-17T09:46:58;2.70;;;1.97;;
15708;SDS011;7954;51.914;8.420;2022-10-17T09:49:39;3.17;;;2.20;;
15708;SDS011;7954;51.914;8.420;2022-10-17T09:52:09;4.23;;;2.30;;
15708;SDS011;7954;51.914;8.420;2022-10-17T09:54:43;3.10;;;1.97;;
15708;SDS011;7954;51.914;8.420;2022-10-17T09:57:12;2.00;;;1.90;;
15708;SDS011;7954;51.914;8.420;2022-10-17T09:59:42;2.23;;;2.03;;
15708;SDS011;7954;51.914;8.420;2022-10-17T10:02:18;2.63;;;2.30;;
15708;SDS011;7954;51.914;8.420;2022-10-17T10:04:54;4.50;;;2.07;;
15708;SDS011;7954;51.914;8.420;2022-10-17T10:07:31;1.87;;;1.77;;
15708;SDS011;7954;51.914;8.420;2022-10-17T10:10:01;2.40;;;1.90;;
15708;SDS011;7954;51.914;8.420;2022-10-17T10:12:31;1.90;;;1.77;;
15708;SDS011;7954;51.914;8.420;2022-10-17T10:15:00;2.43;;;1.80;;
15708;SDS011;7954;51.914;8.420;2022-10-17T10:17:33;2.57;;;2.10;;
15708;SDS011;7954;51.914;8.420;2022-10-17T10:23:03;3.93;;;2.00;;
15708;SDS011;7954;51.914;8.420;2022-10-17T10:25:32;3.00;;;2.10;;
15708;SDS011;7954;51.914;8.420;2022-10-17T10:28:01;2.57;;;2.10;;
15708;SDS011;7954;51.914;8.420;2022-10-17T10:30:37;2.90;;;2.00;;
15708;SDS011;7954;51.914;8.420;2022-10-17T10:33:09;2.30;;;1.77;;
15708;SDS011;7954;51.914;8.420;2022-10-17T10:35:39;3.33;;;1.63;;
15708;SDS011;7954;51.914;8.420;2022-10-17T10:38:08;3.07;;;1.90;;
15708;SDS011;7954;51.914;8.420;2022-10-17T10:40:43;1.93;;;1.80;;
15708;SDS011;7954;51.914;8.420;2022-10-17T10:43:22;2.20;;;1.90;;
15708;SDS011;7954;51.914;8.420;2022-10-17T10:45:54;3.50;;;1.90;;
15708;SDS011;7954;51.914;8.420;2022-10-17T10:48:23;2.67;;;2.03;;
15708;SDS011;7954;51.914;8.420;2022-10-17T10:50:54;2.30;;;1.80;;
15708;SDS011;7954;51.914;8.420;2022-10-17T10:53:28;3.03;;;1.80;;
15708;SDS011;7954;51.914;8.420;2022-10-17T10:56:03;3.73;;;2.00;;
15708;SDS011;7954;51.914;8.420;2022-10-17T10:58:40;2.20;;;1.80;;
15708;SDS011;7954;51.914;8.420;2022-10-17T11:01:17;1.80;;;1.70;;
15708;SDS011;7954;51.914;8.420;2022-10-17T11:04:07;3.03;;;1.80;;
15708;SDS011;7954;51.914;8.420;2022-10-17T11:06:48;1.90;;;1.70;;
15708;SDS011;7954;51.914;8.420;2022-10-17T11:09:22;4.00;;;2.00;;
15708;SDS011;7954;51.914;8.420;2022-10-17T11:12:00;6.67;;;2.83;;
15708;SDS011;7954;51.914;8.420;2022-10-17T11:14:36;8.50;;;3.27;;
15708;SDS011;7954;51.914;8.420;2022-10-17T11:17:09;4.93;;;2.20;;
15708;SDS011;7954;51.914;8.420;2022-10-17T11:19:47;4.93;;;2.40;;
15708;SDS011;7954;51.914;8.420;2022-10-17T11:22:25;3.50;;;1.90;;
15708;SDS011;7954;51.914;8.420;2022-10-17T11:24:57;4.37;;;2.10;;
15708;SDS011;7954;51.914;8.420;2022-10-17T11:27:27;5.03;;;2.23;;
15708;SDS011;7954;51.914;8.420;2022-10-17T11:29:57;2.67;;;1.90;;
15708;SDS011;7954;51.914;8.420;2022-10-17T11:32:26;6.60;;;2.30;;
15708;SDS011;7954;51.914;8.420;2022-10-17T11:35:00;5.17;;;2.40;;
15708;SDS011;7954;51.914;8.420;2022-10-17T11:37:34;4.07;;;2.40;;
15708;SDS011;7954;51.914;8.420;2022-10-17T11:40:08;1.90;;;1.70;;
15708;SDS011;7954;51.914;8.420;2022-10-17T11:42:50;5.43;;;2.50;;
15708;SDS011;7954;51.914;8.420;2022-10-17T11:45:21;5.33;;;2.17;;
15708;SDS011;7954;51.914;8.420;2022-10-17T11:47:54;5.97;;;1.80;;
15708;SDS011;7954;51.914;8.420;2022-10-17T11:50:28;3.67;;;1.83;;
15708;SDS011;7954;51.914;8.420;2022-10-17T11:53:21;3.97;;;2.40;;
15708;SDS011;7954;51.914;8.420;2022-10-17T11:55:51;2.20;;;1.90;;
15708;SDS011;7954;51.914;8.420;2022-10-17T11:58:23;5.97;;;2.77;;
15708;SDS011;7954;51.914;8.420;2022-10-17T12:01:04;3.93;;;2.27;;
15708;SDS011;7954;51.914;8.420;2022-10-17T12:03:41;3.33;;;2.07;;
15708;SDS011;7954;51.914;8.420;2022-10-17T12:06:41;4.80;;;1.93;;
15708;SDS011;7954;51.914;8.420;2022-10-17T12:09:17;4.73;;;2.07;;
15708;SDS011;7954;51.914;8.420;2022-10-17T12:11:52;4.07;;;2.00;;
15708;SDS011;7954;51.914;8.420;2022-10-17T12:17:27;4.37;;;2.10;;
15708;SDS011;7954;51.914;8.420;2022-10-17T12:22:53;3.70;;;2.17;;
15708;SDS011;7954;51.914;8.420;2022-10-17T12:25:25;3.97;;;2.00;;
15708;SDS011;7954;51.914;8.420;2022-10-17T12:28:03;3.13;;;2.20;;
15708;SDS011;7954;51.914;8.420;2022-10-17T12:30:49;6.83;;;2.57;;
15708;SDS011;7954;51.914;8.420;2022-10-17T12:33:21;3.40;;;2.43;;
15708;SDS011;7954;51.914;8.420;2022-10-17T12:39:40;4.60;;;1.70;;
15708;SDS011;7954;51.914;8.420;2022-10-17T12:42:00;3.13;;;1.90;;
15708;SDS011;7954;51.914;8.420;2022-10-17T12:44:34;5.33;;;2.20;;
15708;SDS011;7954;51.914;8.420;2022-10-17T12:50:02;4.67;;;2.03;;
15708;SDS011;7954;51.914;8.420;2022-10-17T12:52:54;6.33;;;2.70;;
15708;SDS011;7954;51.914;8.420;2022-10-17T12:55:30;3.23;;;2.40;;
15708;SDS011;7954;51.914;8.420;2022-10-17T12:58:00;3.00;;;2.17;;
15708;SDS011;7954;51.914;8.420;2022-10-17T13:00:33;6.10;;;2.40;;
15708;SDS011;7954;51.914;8.420;2022-10-17T13:03:25;4.00;;;2.10;;
15708;SDS011;7954;51.914;8.420;2022-10-17T13:05:56;5.77;;;2.23;;
15708;SDS011;7954;51.914;8.420;2022-10-17T13:08:29;4.97;;;1.80;;
15708;SDS011;7954;51.914;8.420;2022-10-17T13:10:59;2.33;;;1.90;;
15708;SDS011;7954;51.914;8.420;2022-10-17T13:13:33;3.27;;;1.97;;
15708;SDS011;7954;51.914;8.420;2022-10-17T13:16:04;2.73;;;2.40;;
15708;SDS011;7954;51.914;8.420;2022-10-17T13:18:32;3.23;;;2.17;;
15708;SDS011;7954;51.914;8.420;2022-10-17T13:21:03;3.23;;;2.60;;
15708;SDS011;7954;51.914;8.420;2022-10-17T13:23:35;2.60;;;2.17;;
15708;SDS011;7954;51.914;8.420;2022-10-17T13:26:05;3.10;;;2.03;;
15708;SDS011;7954;51.914;8.420;2022-10-17T13:28:45;2.90;;;2.20;;
15708;SDS011;7954;51.914;8.420;2022-10-17T13:31:27;2.73;;;2.00;;
15708;SDS011;7954;51.914;8.420;2022-10-17T13:33:58;3.40;;;2.00;;
15708;SDS011;7954;51.914;8.420;2022-10-17T13:36:27;5.53;;;2.43;;
15708;SDS011;7954;51.914;8.420;2022-10-17T13:38:58;3.83;;;2.33;;
15708;SDS011;7954;51.914;8.420;2022-10-17T13:41:34;2.83;;;2.07;;
15708;SDS011;7954;51.914;8.420;2022-10-17T13:44:08;2.33;;;1.77;;
15708;SDS011;7954;51.914;8.420;2022-10-17T13:46:39;4.93;;;2.17;;
15708;SDS011;7954;51.914;8.420;2022-10-17T13:49:09;3.17;;;2.00;;
15708;SDS011;7954;51.914;8.420;2022-10-17T13:51:42;3.70;;;1.93;;
15708;SDS011;7954;51.914;8.420;2022-10-17T13:57:02;4.60;;;2.23;;
15708;SDS011;7954;51.914;8.420;2022-10-17T13:59:35;3.43;;;2.23;;
15708;SDS011;7954;51.914;8.420;2022-10-17T14:02:05;2.37;;;1.87;;
15708;SDS011;7954;51.914;8.420;2022-10-17T14:04:38;3.30;;;2.00;;
15708;SDS011;7954;51.914;8.420;2022-10-17T14:07:28;2.47;;;2.00;;
15708;SDS011;7954;51.914;8.420;2022-10-17T14:10:24;2.03;;;1.77;;
15708;SDS011;7954;51.914;8.420;2022-10-17T14:12:54;5.77;;;2.10;;
15708;SDS011;7954;51.914;8.420;2022-10-17T14:15:26;4.40;;;2.00;;
15708;SDS011;7954;51.914;8.420;2022-10-17T14:17:57;2.20;;;1.90;;
15708;SDS011;7954;51.914;8.420;2022-10-17T14:20:33;5.43;;;2.10;;
15708;SDS011;7954;51.914;8.420;2022-10-17T14:23:29;3.10;;;1.90;;
15708;SDS011;7954;51.914;8.420;2022-10-17T14:26:08;3.33;;;2.10;;
15708;SDS011;7954;51.914;8.420;2022-10-17T14:28:39;3.80;;;2.40;;
15708;SDS011;7954;51.914;8.420;2022-10-17T14:31:11;2.37;;;2.17;;
15708;SDS011;7954;51.914;8.420;2022-10-17T14:33:46;2.37;;;2.10;;
15708;SDS011;7954;51.914;8.420;2022-10-17T14:36:16;4.13;;;2.40;;
15708;SDS011;7954;51.914;8.420;2022-10-17T14:38:45;4.13;;;2.27;;
15708;SDS011;7954;51.914;8.420;2022-10-17T14:41:18;5.53;;;2.17;;
15708;SDS011;7954;51.914;8.420;2022-10-17T14:44:22;2.90;;;2.10;;
15708;SDS011;7954;51.914;8.420;2022-10-17T14:46:54;4.67;;;2.47;;
15708;SDS011;7954;51.914;8.420;2022-10-17T14:49:30;3.30;;;2.67;;
15708;SDS011;7954;51.914;8.420;2022-10-17T14:54:55;2.50;;;1.93;;
15708;SDS011;7954;51.914;8.420;2022-10-17T14:57:38;3.40;;;2.07;;
15708;SDS011;7954;51.914;8.420;2022-10-17T15:00:12;4.30;;;2.60;;
15708;SDS011;7954;51.914;8.420;2022-10-17T15:02:41;3.13;;;2.17;;
15708;SDS011;7954;51.914;8.420;2022-10-17T15:05:10;3.40;;;2.30;;
15708;SDS011;7954;51.914;8.420;2022-10-17T15:07:39;2.73;;;2.07;;
15708;SDS011;7954;51.914;8.420;2022-10-17T15:10:08;3.53;;;2.10;;
15708;SDS011;7954;51.914;8.420;2022-10-17T15:12:51;4.73;;;2.20;;
15708;SDS011;7954;51.914;8.420;2022-10-17T15:15:35;6.60;;;2.20;;
15708;SDS011;7954;51.914;8.420;2022-10-17T15:18:04;2.23;;;2.00;;
15708;SDS011;7954;51.914;8.420;2022-10-17T15:20:34;4.40;;;2.40;;
15708;SDS011;7954;51.914;8.420;2022-10-17T15:23:02;4.30;;;2.50;;
15708;SDS011;7954;51.914;8.420;2022-10-17T15:25:30;2.27;;;1.80;;
15708;SDS011;7954;51.914;8.420;2022-10-17T15:28:01;3.53;;;2.47;;
15708;SDS011;7954;51.914;8.420;2022-10-17T15:30:29;3.50;;;2.20;;
15708;SDS011;7954;51.914;8.420;2022-10-17T15:32:58;2.80;;;2.13;;
15708;SDS011;7954;51.914;8.420;2022-10-17T15:35:26;3.67;;;2.77;;
15708;SDS011;7954;51.914;8.420;2022-10-17T15:37:55;3.00;;;2.17;;
15708;SDS011;7954;51.914;8.420;2022-10-17T15:40:24;3.67;;;2.20;;
15708;SDS011;7954;51.914;8.420;2022-10-17T15:42:54;7.00;;;2.23;;
15708;SDS011;7954;51.914;8.420;2022-10-17T15:45:24;3.33;;;2.37;;
15708;SDS011;7954;51.914;8.420;2022-10-17T15:47:52;2.30;;;1.93;;
15708;SDS011;7954;51.914;8.420;2022-10-17T15:50:22;2.13;;;1.90;;
15708;SDS011;7954;51.914;8.420;2022-10-17T15:52:50;3.03;;;2.07;;
15708;SDS011;7954;51.914;8.420;2022-10-17T15:55:19;3.07;;;2.07;;